Terminal Aerodrome Forecast
Issued by NWS

Home | Current Version | Previous Version | Text Only | Print | Product List | Glossary On
Versions: 1 2 3 4 5 6 7 8 9 10 11 12 13 14 15 16 17 18 19 20 21 22 23 24 25 26 27 28 29 30 31 32 33 34 35 36 37
144
FTUS44 KFWD 210257 AAA
TAFGKY
TAF AMD
KGKY 210257Z 2103/2124 32013KT 5SM SHRA VCTS OVC009CB
     FM210500 32013KT 5SM SHRA OVC009
     FM211000 34016KT P6SM VCSH OVC010
      TEMPO 2110/2114 3SM SHRA OVC009
     FM211600 34016KT 5SM SHRA VCTS OVC007CB
     FM212000 34011KT 4SM BR VCSH OVC007=

USA.gov is the U.S. government's official web portal to all federal, state and local government web resources and services.